Time;durP1;ratioP1;P1;durP2;ratioP2;P2;SDS_P1;SDS_P2;PMS_P1;PMS_P2;Temp;Humidity;BMP_temperature;BMP_pressure;BME280_temperature;BME280_humidity;BME280_pressure;Samples;Min_cycle;Max_cycle;Signal;HPM_P1;HPM_P2
2021/07/23 00:00:38;;;;;;;7.97;7.33;;;;;;;17.96;74.28;102122.47;5040473;28;20447;-74
2021/07/23 00:03:04;;;;;;;17.10;15.47;;;;;;;17.52;73.81;102041.88;5036318;28;20227;-74
2021/07/23 00:05:29;;;;;;;9.60;8.70;;;;;;;17.73;73.77;102073.28;5037950;28;20581;-74
2021/07/23 00:07:55;;;;;;;11.83;10.93;;;;;;;17.90;74.92;102122.50;5037075;28;20498;-74
2021/07/23 00:10:20;;;;;;;6.87;6.20;;;;;;;17.81;74.26;102082.03;5039536;28;20281;-74
2021/07/23 00:12:46;;;;;;;8.73;8.03;;;;;;;17.89;75.06;102116.25;5038587;28;20693;-74
2021/07/23 00:15:11;;;;;;;7.37;6.57;;;;;;;17.46;74.72;102038.13;5039649;28;20210;-74
2021/07/23 00:17:37;;;;;;;8.10;7.40;;;;;;;17.67;74.85;102068.72;5032690;28;20257;-74
2021/07/23 00:20:03;;;;;;;10.33;9.43;;;;;;;17.90;75.09;102122.50;5036107;28;20195;-74
2021/07/23 00:22:28;;;;;;;6.20;4.30;;;;;;;17.85;74.36;102101.44;5035228;28;20638;-74
2021/07/23 00:24:54;;;;;;;5.17;4.77;;;;;;;17.93;74.56;102111.22;5038520;28;20449;-74
2021/07/23 00:27:19;;;;;;;4.90;4.33;;;;;;;17.67;74.75;102074.16;5035795;28;20200;-74
2021/07/23 00:29:44;;;;;;;7.37;5.07;;;;;;;18.07;74.16;102121.78;5036309;28;20191;-74
2021/07/23 00:32:10;;;;;;;7.57;6.23;;;;;;;17.84;73.99;102089.75;5037696;28;20271;-74
2021/07/23 00:34:35;;;;;;;7.53;5.23;;;;;;;17.49;74.79;102051.28;5039041;28;20239;-74
2021/07/23 00:37:01;;;;;;;6.33;5.30;;;;;;;17.64;74.34;102064.56;5037617;28;20314;-74
2021/07/23 00:39:26;;;;;;;5.53;5.00;;;;;;;17.80;74.97;102115.66;5034597;28;20217;-74
2021/07/23 00:41:52;;;;;;;4.60;4.20;;;;;;;17.52;74.47;102066.28;5037939;28;20184;-74
2021/07/23 00:44:17;;;;;;;5.07;4.57;;;;;;;17.80;74.88;102112.13;5040524;28;20222;-74
2021/07/23 00:46:44;;;;;;;4.57;4.10;;;;;;;17.67;74.55;102080.41;5035107;28;20176;-75
2021/07/23 00:49:09;;;;;;;6.10;4.77;;;;;;;17.70;73.54;102081.84;5039908;28;20286;-74
2021/07/23 00:51:35;;;;;;;4.70;4.30;;;;;;;17.50;73.80;102046.66;5039326;28;20435;-74
2021/07/23 00:54:01;;;;;;;4.83;4.40;;;;;;;17.51;71.99;102054.59;5037333;28;20198;-74
2021/07/23 00:56:27;;;;;;;4.40;4.00;;;;;;;17.68;71.40;102065.81;5039776;28;20639;-74
2021/07/23 00:58:55;;;;;;;7.00;4.73;;;;;;;17.70;71.64;102084.56;5036730;28;20494;-76
2021/07/23 01:01:22;;;;;;;5.23;4.27;;;;;;;17.76;72.00;102100.84;5038420;28;20617;-75
2021/07/23 01:03:48;;;;;;;5.70;4.40;;;;;;;17.56;71.98;102062.09;5036303;28;20442;-75
2021/07/23 01:06:13;;;;;;;5.33;4.77;;;;;;;17.41;72.27;102048.78;5038738;28;20457;-75
2021/07/23 01:08:39;;;;;;;5.53;4.30;;;;;;;17.75;71.17;102099.16;5038037;28;20528;-75
2021/07/23 01:11:04;;;;;;;4.20;3.83;;;;;;;17.68;71.31;102089.41;5040216;28;20184;-75
2021/07/23 01:13:30;;;;;;;4.87;4.20;;;;;;;17.61;71.47;102082.09;5037829;28;20194;-76
2021/07/23 01:15:55;;;;;;;5.50;4.60;;;;;;;17.67;70.46;102076.84;5036124;28;20219;-75
2021/07/23 01:18:21;;;;;;;4.83;4.10;;;;;;;17.55;70.03;102053.13;5035311;28;20206;-74
2021/07/23 01:20:47;;;;;;;6.10;4.13;;;;;;;17.15;70.46;102003.63;5038213;28;20192;-75
2021/07/23 01:23:28;;;;;;;5.90;4.67;;;;;;;17.64;69.88;102075.41;5034834;28;20187;-75
2021/07/23 01:25:53;;;;;;;4.63;4.10;;;;;;;17.60;69.87;102077.72;5036844;28;20439;-74
2021/07/23 01:28:19;;;;;;;4.70;4.27;;;;;;;17.17;70.13;102012.38;5034923;28;20526;-75
2021/07/23 01:30:44;;;;;;;5.80;4.43;;;;;;;17.13;70.37;102005.75;5036754;28;20183;-75
2021/07/23 01:33:10;;;;;;;4.53;3.90;;;;;;;16.84;70.43;101959.13;5037954;28;20267;-74
2021/07/23 01:35:35;;;;;;;6.37;3.80;;;;;;;17.70;70.08;102088.09;5035874;28;20264;-74
2021/07/23 01:38:02;;;;;;;4.03;3.63;;;;;;;17.68;69.61;102062.25;5034107;28;20200;-74
2021/07/23 01:40:28;;;;;;;6.03;4.00;;;;;;;17.15;70.49;102019.91;5036583;28;20180;-74
2021/07/23 01:42:53;;;;;;;4.73;3.77;;;;;;;17.40;69.34;102030.88;5036288;28;20546;-74
2021/07/23 01:45:19;;;;;;;4.23;3.83;;;;;;;17.32;69.35;102004.81;5035638;28;20198;-74
2021/07/23 01:47:44;;;;;;;6.50;4.80;;;;;;;17.63;67.66;102035.78;5034358;28;20211;-74
2021/07/23 01:50:10;;;;;;;3.90;3.50;;;;;;;16.33;67.14;101827.16;5036941;28;20188;-73
2021/07/23 01:52:35;;;;;;;4.60;4.13;;;;;;;17.47;69.23;102030.81;5037065;28;20332;-74
2021/07/23 01:55:01;;;;;;;6.00;4.43;;;;;;;17.65;68.78;102058.09;5038429;28;20599;-74
2021/07/23 01:57:27;;;;;;;4.53;4.10;;;;;;;17.72;68.27;102067.03;5035266;28;20203;-75
2021/07/23 01:59:52;;;;;;;4.30;3.90;;;;;;;17.72;68.42;102067.03;5036050;28;20250;-74
2021/07/23 02:02:17;;;;;;;3.90;3.47;;;;;;;17.76;68.50;102064.69;5035899;28;20175;-75
2021/07/23 02:04:43;;;;;;;4.60;3.67;;;;;;;17.72;67.37;102056.16;5043654;28;20199;-76
2021/07/23 02:07:08;;;;;;;4.57;4.00;;;;;;;17.71;68.28;102075.41;5036901;28;20176;-75
2021/07/23 02:09:33;;;;;;;6.77;4.10;;;;;;;17.86;68.32;102065.09;5041129;28;20271;-75
2021/07/23 02:11:59;;;;;;;4.53;3.70;;;;;;;17.32;69.07;101993.13;5036267;28;20188;-75
2021/07/23 02:14:28;;;;;;;4.57;4.13;;;;;;;17.56;69.68;102043.94;5035707;28;20196;-76
2021/07/23 02:16:54;;;;;;;4.67;4.27;;;;;;;17.65;68.62;102024.69;5036016;28;20204;-76
2021/07/23 02:19:19;;;;;;;4.00;3.60;;;;;;;17.71;70.22;102059.94;5036938;28;20457;-75
2021/07/23 02:21:44;;;;;;;4.40;3.93;;;;;;;17.27;70.08;101998.38;5039727;28;20191;-74
2021/07/23 02:24:10;;;;;;;4.97;3.80;;;;;;;17.50;70.47;102043.97;5037120;28;20226;-75
2021/07/23 02:26:35;;;;;;;4.40;4.00;;;;;;;17.55;70.88;102058.53;5035744;28;20188;-75
2021/07/23 02:29:01;;;;;;;4.70;4.30;;;;;;;17.54;69.33;102015.38;5031680;28;20641;-75
2021/07/23 02:31:26;;;;;;;4.90;4.50;;;;;;;17.75;69.68;102052.19;5036869;28;20196;-74
2021/07/23 02:33:52;;;;;;;4.00;3.70;;;;;;;17.73;69.87;102065.97;5038819;28;20199;-75
2021/07/23 02:36:17;;;;;;;4.77;4.20;;;;;;;17.62;70.71;102067.50;5036587;28;20210;-75
2021/07/23 02:38:43;;;;;;;5.90;4.10;;;;;;;17.45;70.86;102041.09;5038569;28;20299;-74
2021/07/23 02:41:09;;;;;;;4.83;4.13;;;;;;;17.63;71.45;102063.72;5036947;28;20677;-74
2021/07/23 02:43:34;;;;;;;4.63;4.23;;;;;;;17.64;71.31;102061.84;5038326;28;20192;-73
2021/07/23 02:45:59;;;;;;;4.70;4.33;;;;;;;17.46;71.34;102046.28;5038336;28;20215;-72
2021/07/23 02:48:25;;;;;;;5.57;4.43;;;;;;;17.70;70.89;102060.16;5035779;28;20802;-73
2021/07/23 02:50:51;;;;;;;5.13;3.93;;;;;;;17.08;70.88;101965.72;5040247;28;20199;-74
2021/07/23 02:53:18;;;;;;;7.07;4.20;;;;;;;17.63;69.67;102043.91;5042161;28;20222;-75
2021/07/23 02:55:43;;;;;;;5.47;4.97;;;;;;;17.24;70.89;102013.22;5039900;28;20268;-75
2021/07/23 02:58:09;;;;;;;4.57;4.17;;;;;;;17.67;70.17;102060.56;5035439;28;20462;-73
2021/07/23 03:00:34;;;;;;;5.33;4.47;;;;;;;17.57;70.38;102051.03;5040911;28;20554;-74
2021/07/23 03:03:03;;;;;;;5.17;4.43;;;;;;;17.64;69.96;102048.28;5041440;28;20204;-74
2021/07/23 03:05:29;;;;;;;4.67;4.27;;;;;;;17.18;69.65;101957.09;5039379;28;20272;-74
2021/07/23 03:07:54;;;;;;;6.60;4.97;;;;;;;17.73;69.95;102055.09;5036297;28;20557;-74
2021/07/23 03:10:20;;;;;;;4.83;4.40;;;;;;;17.36;70.18;102014.19;5040023;28;20210;-75
2021/07/23 03:12:45;;;;;;;6.97;4.43;;;;;;;17.55;70.87;102055.00;5044380;28;20211;-75
2021/07/23 03:15:11;;;;;;;4.80;4.30;;;;;;;17.21;70.69;101988.38;5042394;28;20325;-74
2021/07/23 03:17:37;;;;;;;5.13;4.27;;;;;;;17.52;70.28;102055.44;5039610;28;20239;-74
2021/07/23 03:20:03;;;;;;;6.67;4.83;;;;;;;17.27;70.59;102001.94;5041211;28;20567;-74
2021/07/23 03:22:29;;;;;;;5.70;5.20;;;;;;;17.55;70.36;102061.25;5041737;28;20574;-75
2021/07/23 03:24:55;;;;;;;6.03;5.33;;;;;;;17.45;69.96;102038.38;5040458;28;20443;-74
2021/07/23 03:27:21;;;;;;;5.90;5.10;;;;;;;17.36;70.32;102003.34;5036932;28;20667;-75
2021/07/23 03:29:47;;;;;;;6.43;4.80;;;;;;;17.14;70.61;101972.16;5038580;28;20473;-74
2021/07/23 03:32:12;;;;;;;6.30;5.70;;;;;;;16.89;69.32;101931.38;5038569;28;20585;-74
2021/07/23 03:34:38;;;;;;;7.33;6.50;;;;;;;17.32;67.74;101985.00;5040372;28;20234;-74
2021/07/23 03:37:03;;;;;;;6.63;6.00;;;;;;;17.71;67.24;102032.81;5038254;28;20349;-75
2021/07/23 03:39:29;;;;;;;7.67;6.53;;;;;;;17.75;67.24;102019.63;5040118;28;20207;-75
2021/07/23 03:41:54;;;;;;;8.03;6.50;;;;;;;17.49;66.82;101999.72;5038719;28;20199;-74
2021/07/23 03:44:20;;;;;;;8.40;7.47;;;;;;;17.50;66.97;101982.44;5041364;28;20204;-75
2021/07/23 03:46:45;;;;;;;8.83;7.00;;;;;;;17.61;67.15;102033.25;5039882;28;20188;-76
2021/07/23 03:49:11;;;;;;;7.57;6.60;;;;;;;17.38;67.36;102022.09;5038047;28;20219;-75
2021/07/23 03:51:36;;;;;;;7.00;6.40;;;;;;;17.49;68.18;102031.44;5038423;28;20190;-76
2021/07/23 03:54:01;;;;;;;7.17;6.47;;;;;;;17.38;67.48;101987.69;5036887;28;20271;-74
2021/07/23 03:56:27;;;;;;;7.57;6.87;;;;;;;17.27;67.09;101980.25;5038798;28;20568;-74
2021/07/23 03:58:52;;;;;;;7.10;5.90;;;;;;;17.67;67.20;102031.56;5038773;28;20207;-76
2021/07/23 04:01:18;;;;;;;6.70;6.00;;;;;;;17.55;68.11;102028.69;5037650;28;20621;-74
2021/07/23 04:03:43;;;;;;;6.67;5.93;;;;;;;16.54;67.94;101877.50;5042330;28;20180;-75
2021/07/23 04:06:09;;;;;;;8.77;6.50;;;;;;;17.43;67.48;101999.78;5036700;28;20215;-75
2021/07/23 04:08:34;;;;;;;7.73;7.03;;;;;;;17.35;67.06;101979.16;5032003;28;20212;-75
2021/07/23 04:11:00;;;;;;;6.53;5.83;;;;;;;17.66;67.23;102034.50;5038318;28;20189;-75
2021/07/23 04:13:25;;;;;;;7.73;6.23;;;;;;;17.67;67.31;102028.03;5036439;28;20192;-75
2021/07/23 04:15:51;;;;;;;6.00;5.40;;;;;;;17.58;67.74;102033.69;5036906;28;20204;-75
2021/07/23 04:18:16;;;;;;;6.43;5.83;;;;;;;17.61;68.19;102024.28;5040399;28;20214;-75
2021/07/23 04:20:43;;;;;;;7.00;5.67;;;;;;;17.74;67.99;102042.41;5033928;28;20553;-76
2021/07/23 04:23:08;;;;;;;5.90;5.40;;;;;;;17.07;68.01;101917.16;5039950;28;20192;-75
2021/07/23 04:25:34;;;;;;;6.33;5.30;;;;;;;17.12;69.18;101961.50;5039876;28;20853;-75
2021/07/23 04:27:59;;;;;;;6.27;5.30;;;;;;;17.31;69.20;101976.03;5032911;28;20228;-74
2021/07/23 04:30:25;;;;;;;7.30;6.37;;;;;;;17.42;69.81;102015.22;5038285;28;20271;-73
2021/07/23 04:32:51;;;;;;;8.40;6.00;;;;;;;17.24;69.92;101998.81;5037911;28;20196;-74
2021/07/23 04:35:16;;;;;;;5.80;5.03;;;;;;;17.42;70.21;102017.94;5036016;28;20450;-73
2021/07/23 04:37:41;;;;;;;5.70;5.20;;;;;;;17.54;69.87;102018.91;5035776;28;20215;-74
2021/07/23 04:40:08;;;;;;;5.37;4.87;;;;;;;16.76;69.66;101899.75;5037493;28;20231;-74
2021/07/23 04:42:34;;;;;;;5.17;4.67;;;;;;;17.18;70.48;101978.81;5038781;28;21153;-74
2021/07/23 04:44:59;;;;;;;5.50;5.00;;;;;;;17.20;70.68;101992.16;5035088;28;20438;-74
2021/07/23 04:47:24;;;;;;;8.00;4.87;;;;;;;17.20;70.08;101979.44;5040707;28;20219;-75
2021/07/23 04:49:50;;;;;;;4.37;3.90;;;;;;;17.56;69.25;102022.25;5036319;28;20237;-75
2021/07/23 04:52:15;;;;;;;6.10;4.60;;;;;;;17.48;68.77;102021.66;5038956;28;20249;-75
2021/07/23 04:54:41;;;;;;;4.30;3.90;;;;;;;17.29;69.74;102001.72;5038391;28;20628;-75
2021/07/23 04:57:12;;;;;;;6.63;4.60;;;;;;;17.24;69.25;102007.78;5036906;28;20253;-74
2021/07/23 04:59:38;;;;;;;5.27;3.90;;;;;;;17.30;68.75;102015.06;5035336;28;20497;-74
2021/07/23 05:02:03;;;;;;;5.40;4.37;;;;;;;17.26;68.68;102019.22;5040499;28;20870;-74
2021/07/23 05:04:28;;;;;;;3.83;3.53;;;;;;;17.29;68.21;102004.41;5036188;28;20192;-74
2021/07/23 05:06:54;;;;;;;4.97;3.50;;;;;;;17.28;67.56;101987.31;5037144;28;20184;-74
2021/07/23 05:09:19;;;;;;;4.33;3.93;;;;;;;17.29;67.66;101991.69;5039020;28;20258;-75
2021/07/23 05:11:46;;;;;;;4.67;4.27;;;;;;;17.22;67.63;101984.66;5044962;28;20242;-75
2021/07/23 05:14:11;;;;;;;3.93;3.63;;;;;;;17.39;67.93;102019.19;5035947;28;20195;-73
2021/07/23 05:16:37;;;;;;;3.87;3.50;;;;;;;17.32;67.95;102020.25;5032857;28;20478;-74
2021/07/23 05:19:04;;;;;;;6.50;4.03;;;;;;;17.49;67.56;102013.28;5037075;28;20214;-74
2021/07/23 05:21:30;;;;;;;7.73;4.43;;;;;;;17.45;67.69;101992.25;5036858;28;21119;-74
2021/07/23 05:23:56;;;;;;;4.57;4.13;;;;;;;17.47;68.06;101992.84;5035938;28;20450;-73
2021/07/23 05:26:21;;;;;;;3.57;3.27;;;;;;;17.20;68.04;101971.28;5034490;28;20203;-73
2021/07/23 05:28:46;;;;;;;5.27;4.20;;;;;;;17.60;68.11;102014.50;5034652;28;20227;-73
2021/07/23 05:31:12;;;;;;;7.00;4.20;;;;;;;17.34;68.70;101980.22;5038622;28;20195;-73
2021/07/23 05:33:37;;;;;;;6.33;4.40;;;;;;;17.54;67.90;102020.78;5037906;28;20726;-73
2021/07/23 05:36:03;;;;;;;6.77;4.03;;;;;;;17.17;68.22;101948.16;5039743;28;20208;-74
2021/07/23 05:38:29;;;;;;;4.90;4.03;;;;;;;17.53;67.82;102016.41;5031737;28;20207;-74
2021/07/23 05:40:54;;;;;;;7.63;4.70;;;;;;;17.09;68.24;101945.69;5038067;28;20460;-74
2021/07/23 05:43:20;;;;;;;4.80;4.17;;;;;;;17.50;68.20;102014.13;5037567;28;20241;-74
2021/07/23 05:45:45;;;;;;;4.70;3.90;;;;;;;16.15;68.06;101794.53;5045432;28;20242;-74
2021/07/23 05:48:10;;;;;;;4.90;3.77;;;;;;;17.54;68.90;102013.47;5035522;28;20208;-74
2021/07/23 05:50:36;;;;;;;4.63;4.13;;;;;;;17.45;68.92;101994.97;5036323;28;20219;-74
2021/07/23 05:53:01;;;;;;;6.97;4.57;;;;;;;17.33;68.24;101965.81;5040409;28;21208;-74
2021/07/23 05:55:27;;;;;;;4.97;4.53;;;;;;;17.33;68.67;101983.97;5040674;28;20188;-74
2021/07/23 05:57:56;;;;;;;6.50;4.47;;;;;;;17.16;68.35;101953.81;5035395;28;20284;-73
2021/07/23 06:00:23;;;;;;;4.20;3.90;;;;;;;17.21;68.62;101945.84;5035260;28;20188;-74
2021/07/23 06:02:48;;;;;;;5.53;4.10;;;;;;;17.35;68.53;101965.59;5038568;28;20437;-74
2021/07/23 06:05:14;;;;;;;4.80;4.30;;;;;;;17.29;68.29;101942.88;5037291;28;20521;-73
2021/07/23 06:07:40;;;;;;;4.77;4.27;;;;;;;17.66;68.23;102013.63;5041376;28;20286;-74
2021/07/23 06:10:05;;;;;;;5.83;4.40;;;;;;;17.15;69.04;101955.69;5039167;28;21033;-74
2021/07/23 06:12:32;;;;;;;5.03;3.40;;;;;;;17.61;68.68;102013.44;5036183;28;20254;-73
2021/07/23 06:14:57;;;;;;;4.73;4.33;;;;;;;17.64;68.95;102004.88;5036818;28;20653;-74
2021/07/23 06:17:22;;;;;;;5.00;4.13;;;;;;;17.61;68.55;101997.16;5037525;28;20555;-74
2021/07/23 06:19:48;;;;;;;5.00;4.57;;;;;;;17.47;68.98;101984.72;5050579;28;20652;-74
2021/07/23 06:22:15;;;;;;;4.10;3.70;;;;;;;17.57;69.65;101987.81;5039688;28;20196;-74
2021/07/23 06:24:40;;;;;;;4.67;4.27;;;;;;;17.66;68.87;102008.19;5033912;28;20656;-74
2021/07/23 06:27:06;;;;;;;6.20;4.50;;;;;;;17.34;68.58;101962.03;5036633;28;20441;-74
2021/07/23 06:29:31;;;;;;;5.83;4.23;;;;;;;17.54;69.07;101999.09;5038596;28;20671;-75
2021/07/23 06:31:58;;;;;;;4.27;3.87;;;;;;;17.46;67.88;101983.88;5042106;28;20735;-75
2021/07/23 06:34:23;;;;;;;3.93;3.53;;;;;;;17.78;68.19;102013.78;5041465;28;20663;-75
2021/07/23 06:36:48;;;;;;;6.90;4.17;;;;;;;17.46;68.28;101972.22;5031972;28;20482;-75
2021/07/23 06:39:14;;;;;;;4.53;4.03;;;;;;;17.64;68.01;101994.00;5044024;28;20680;-75
2021/07/23 06:41:39;;;;;;;5.50;3.87;;;;;;;17.71;69.05;101978.53;5040862;28;20667;-74
2021/07/23 06:44:05;;;;;;;4.17;3.67;;;;;;;17.67;68.38;102006.31;5041239;28;20804;-74
2021/07/23 06:46:30;;;;;;;4.20;3.80;;;;;;;17.38;68.62;101960.56;5040632;28;20183;-75
2021/07/23 06:48:55;;;;;;;5.60;4.00;;;;;;;17.50;67.70;101977.00;5035417;28;20201;-74
2021/07/23 06:51:21;;;;;;;5.33;3.87;;;;;;;17.51;68.23;101950.69;5041134;28;20187;-74
2021/07/23 06:53:46;;;;;;;4.83;4.23;;;;;;;17.06;67.49;101872.09;5040075;28;20550;-75
2021/07/23 06:56:12;;;;;;;4.53;4.13;;;;;;;17.63;68.40;101981.50;5038701;28;20220;-74
2021/07/23 06:58:37;;;;;;;4.53;3.80;;;;;;;17.59;68.41;101978.41;5039009;28;20204;-75
2021/07/23 07:01:06;;;;;;;4.67;4.13;;;;;;;17.39;68.83;101964.13;5038987;28;20216;-75
2021/07/23 07:03:32;;;;;;;4.63;4.10;;;;;;;17.80;68.58;102009.81;5049849;28;20203;-75
2021/07/23 07:05:58;;;;;;;5.50;3.87;;;;;;;17.72;67.92;102007.31;5034492;28;20431;-73
2021/07/23 07:08:24;;;;;;;6.90;4.10;;;;;;;17.55;68.09;101984.47;5040724;28;20212;-74
2021/07/23 07:10:49;;;;;;;4.17;3.60;;;;;;;17.80;67.15;102009.81;5038252;28;20954;-74
2021/07/23 07:13:15;;;;;;;5.67;3.63;;;;;;;17.46;68.46;101961.38;5037185;28;20184;-74
2021/07/23 07:15:40;;;;;;;5.70;4.07;;;;;;;17.43;68.06;101970.75;5038942;28;20254;-74
2021/07/23 07:18:06;;;;;;;5.50;4.20;;;;;;;17.86;69.22;101999.16;5040343;28;20265;-74
2021/07/23 07:20:33;;;;;;;8.03;4.80;;;;;;;17.82;68.88;102010.44;5039743;28;20191;-74
2021/07/23 07:22:58;;;;;;;4.30;3.83;;;;;;;17.77;69.42;102003.97;5039246;28;20663;-74
2021/07/23 07:25:25;;;;;;;6.70;4.47;;;;;;;17.75;70.01;102011.50;5043670;28;20458;-74
2021/07/23 07:27:53;;;;;;;5.40;4.07;;;;;;;17.93;70.70;102011.59;5034733;28;20207;-73
2021/07/23 07:30:19;;;;;;;4.80;4.30;;;;;;;17.77;68.94;101988.50;5038521;28;20454;-74
2021/07/23 07:32:45;;;;;;;4.47;4.07;;;;;;;18.07;67.78;102017.78;5039879;28;20447;-74
2021/07/23 07:35:11;;;;;;;4.67;3.70;;;;;;;17.62;67.43;101937.28;5040237;28;20450;-74
2021/07/23 07:37:42;;;;;;;5.40;4.23;;;;;;;17.93;66.58;102000.75;5039221;28;20218;-74
2021/07/23 07:40:08;;;;;;;5.73;4.03;;;;;;;17.23;68.07;101937.50;5038684;28;20480;-75
2021/07/23 07:42:34;;;;;;;4.73;4.13;;;;;;;17.84;66.20;102011.03;5041939;28;20453;-75
2021/07/23 07:44:59;;;;;;;4.17;3.77;;;;;;;17.56;66.23;101959.00;5034980;28;20443;-75
2021/07/23 07:47:25;;;;;;;5.20;4.13;;;;;;;17.78;67.48;101989.38;5039845;28;20222;-75
2021/07/23 07:49:50;;;;;;;9.47;3.97;;;;;;;17.93;67.06;101997.19;5037287;28;20265;-75
2021/07/23 07:52:18;;;;;;;4.70;4.30;;;;;;;18.15;67.87;102028.38;5040531;28;20192;-74
2021/07/23 07:54:44;;;;;;;4.57;4.00;;;;;;;18.05;69.67;102014.44;5041814;28;20176;-74
2021/07/23 07:57:10;;;;;;;4.80;4.30;;;;;;;17.86;68.08;101970.13;5037725;28;20909;-74
2021/07/23 07:59:39;;;;;;;5.07;4.57;;;;;;;17.32;68.81;101918.03;5030383;28;20185;-75
2021/07/23 08:02:09;;;;;;;5.20;3.70;;;;;;;18.07;67.35;102013.16;5038194;28;20438;-73
2021/07/23 08:04:34;;;;;;;4.50;4.03;;;;;;;18.06;68.37;102010.69;5052944;28;20587;-74
2021/07/23 08:07:00;;;;;;;3.97;3.57;;;;;;;18.11;67.96;102005.44;5040290;28;20529;-74
2021/07/23 08:09:26;;;;;;;4.23;3.80;;;;;;;17.96;67.65;101991.34;5034298;28;20180;-74
2021/07/23 08:11:53;;;;;;;6.10;3.73;;;;;;;17.97;66.61;101984.88;5038265;28;20199;-74
2021/07/23 08:14:18;;;;;;;5.90;3.87;;;;;;;17.92;66.92;101963.81;5043967;28;21110;-74
2021/07/23 08:16:44;;;;;;;4.40;4.00;;;;;;;18.07;68.14;101982.47;5040570;28;20470;-74
2021/07/23 08:19:10;;;;;;;5.43;3.73;;;;;;;18.01;66.46;101988.78;5038808;28;20215;-74
2021/07/23 08:21:37;;;;;;;5.13;3.47;;;;;;;17.55;66.72;101957.34;5036345;28;20199;-74
2021/07/23 08:24:03;;;;;;;3.70;3.30;;;;;;;17.67;67.41;101973.75;5036769;28;20442;-74
2021/07/23 08:26:29;;;;;;;3.60;3.23;;;;;;;18.13;68.57;102005.22;5042057;28;20436;-74
2021/07/23 08:28:54;;;;;;;4.37;3.97;;;;;;;17.95;66.93;101984.25;5041976;28;20227;-74
2021/07/23 08:31:20;;;;;;;5.23;3.93;;;;;;;18.24;67.63;102007.22;5041973;28;20446;-74
2021/07/23 08:33:45;;;;;;;3.57;3.27;;;;;;;18.01;69.10;102011.34;5038618;28;20736;-75
2021/07/23 08:36:11;;;;;;;4.30;3.60;;;;;;;18.13;67.19;102016.06;5040162;28;20227;-74
2021/07/23 08:38:37;;;;;;;3.80;3.50;;;;;;;18.11;70.05;102010.88;5038395;28;20307;-73
2021/07/23 08:41:03;;;;;;;4.37;3.97;;;;;;;18.14;68.26;102015.00;5038751;28;20684;-75
2021/07/23 08:43:29;;;;;;;3.87;3.53;;;;;;;17.93;69.42;101975.50;5036758;28;20224;-72
2021/07/23 08:45:55;;;;;;;3.70;3.40;;;;;;;18.13;68.55;102005.22;5039869;28;20586;-74
2021/07/23 08:48:20;;;;;;;4.13;3.73;;;;;;;18.19;68.19;102015.19;5038857;28;20485;-73
2021/07/23 08:50:46;;;;;;;3.87;3.47;;;;;;;18.17;68.75;102014.59;5039582;28;20188;-74
2021/07/23 08:53:11;;;;;;;5.70;3.70;;;;;;;17.91;69.24;101983.88;5041671;28;20195;-73
2021/07/23 08:55:38;;;;;;;4.30;3.73;;;;;;;17.65;66.84;101911.59;5039097;28;20250;-73
2021/07/23 08:58:10;;;;;;;5.00;3.83;;;;;;;18.25;67.88;102006.16;5044323;28;20213;-73
2021/07/23 09:00:39;;;;;;;8.07;4.10;;;;;;;18.06;68.71;101978.13;5039530;28;20451;-74
2021/07/23 09:03:09;;;;;;;4.17;3.77;;;;;;;18.16;69.37;102011.03;5044804;28;22372;-73
2021/07/23 09:06:14;;;;;;;4.83;3.80;;;;;;;17.77;67.48;102012.94;5033692;28;21074;-74
2021/07/23 09:08:46;;;;;;;4.90;3.63;;;;;;;17.83;69.14;102003.13;5033341;28;20951;-73
2021/07/23 09:11:12;;;;;;;6.33;4.00;;;;;;;17.35;68.35;101923.03;5037457;28;20946;-73
2021/07/23 09:13:37;;;;;;;4.20;3.60;;;;;;;17.86;68.42;101974.72;5035104;28;20434;-72
2021/07/23 09:16:03;;;;;;;4.87;3.57;;;;;;;17.97;67.90;101995.72;5038701;28;20220;-74
2021/07/23 09:18:31;;;;;;;3.50;3.03;;;;;;;17.93;66.37;101961.91;5043224;28;20231;-72
2021/07/23 09:20:58;;;;;;;8.37;4.13;;;;;;;18.05;67.12;101998.16;5038377;28;20439;-72
2021/07/23 09:23:33;;;;;;;5.50;3.73;;;;;;;17.87;67.18;101965.50;5037711;28;20426;-72
2021/07/23 09:26:14;;;;;;;3.43;2.87;;;;;;;18.26;66.91;101999.69;5038151;28;20442;-73
2021/07/23 09:28:41;;;;;;;4.83;4.33;;;;;;;18.35;66.09;101990.19;5039256;28;20471;-72
2021/07/23 09:31:08;;;;;;;4.37;3.40;;;;;;;18.38;65.56;102008.75;5039366;28;20521;-72
2021/07/23 09:33:40;;;;;;;3.80;3.20;;;;;;;18.00;67.21;101998.84;5034996;28;20822;-72
2021/07/23 09:36:13;;;;;;;3.73;3.10;;;;;;;18.00;66.31;101973.56;5054284;28;20465;-73
2021/07/23 09:38:39;;;;;;;4.37;3.50;;;;;;;17.97;67.88;101991.13;5039414;28;21040;-72
2021/07/23 09:41:24;;;;;;;4.17;3.77;;;;;;;18.11;66.58;101991.00;5039104;28;20451;-73
2021/07/23 09:44:01;;;;;;;8.13;3.40;;;;;;;17.99;67.03;101993.59;5037514;28;20465;-73
2021/07/23 09:46:29;;;;;;;6.83;3.63;;;;;;;17.81;68.52;101997.06;5036254;28;20425;-73
2021/07/23 09:48:56;;;;;;;3.20;3.00;;;;;;;17.75;68.84;101985.19;5036187;28;20854;-74
2021/07/23 09:51:27;;;;;;;4.53;3.80;;;;;;;18.11;67.53;101985.59;5036926;28;20458;-73
2021/07/23 09:53:54;;;;;;;8.17;3.53;;;;;;;18.03;67.00;101967.69;5038106;28;20507;-73
2021/07/23 09:56:23;;;;;;;5.50;3.37;;;;;;;18.38;67.16;101988.91;5040528;28;20970;-73
2021/07/23 09:58:56;;;;;;;3.63;2.80;;;;;;;18.33;67.37;101986.03;5037971;28;20521;-73
2021/07/23 10:01:28;;;;;;;7.00;3.57;;;;;;;18.18;67.37;101981.78;5044738;28;20438;-73
2021/07/23 10:03:58;;;;;;;11.40;4.23;;;;;;;17.74;69.06;101978.09;5035021;28;21074;-74
2021/07/23 10:06:28;;;;;;;4.03;3.70;;;;;;;18.05;68.10;101977.28;5041187;28;20434;-73
2021/07/23 10:08:56;;;;;;;6.80;4.10;;;;;;;17.90;67.58;101940.66;5044866;28;20465;-73
2021/07/23 10:11:22;;;;;;;4.00;3.60;;;;;;;17.62;67.81;101917.47;5042440;28;20518;-73
2021/07/23 10:13:51;;;;;;;5.00;3.73;;;;;;;18.32;67.56;101979.78;5045292;28;20437;-76
2021/07/23 10:16:17;;;;;;;5.33;3.83;;;;;;;18.35;67.82;101983.94;5039128;28;20560;-73
2021/07/23 10:18:43;;;;;;;7.73;4.13;;;;;;;18.23;68.42;101971.06;5036207;28;20462;-73
2021/07/23 10:21:09;;;;;;;4.53;4.00;;;;;;;18.45;69.75;101962.50;5041367;28;20529;-72
2021/07/23 10:23:36;;;;;;;5.97;4.00;;;;;;;17.85;67.54;101876.19;5039388;28;20188;-72
2021/07/23 10:26:03;;;;;;;4.70;4.00;;;;;;;17.56;68.82;101907.44;5039525;28;20442;-73
2021/07/23 10:28:52;;;;;;;4.40;3.63;;;;;;;18.25;67.35;101943.69;5037102;22;26234;-73
2021/07/23 10:31:18;;;;;;;4.50;4.00;;;;;;;18.44;68.03;101967.13;5032267;28;20431;-73
2021/07/23 10:34:01;;;;;;;5.50;3.80;;;;;;;18.61;67.75;101955.69;5029666;28;20512;-74
2021/07/23 10:36:26;;;;;;;3.57;3.27;;;;;;;18.67;68.78;101960.22;5033986;28;20200;-73
2021/07/23 10:39:13;;;;;;;4.57;4.07;;;;;;;18.60;67.85;101956.72;5013162;28;20479;-72
2021/07/23 10:41:39;;;;;;;6.13;4.53;;;;;;;18.53;68.66;101963.06;5034657;28;20710;-73
2021/07/23 10:44:09;;;;;;;13.50;4.80;;;;;;;18.19;68.64;101948.13;5015157;28;20443;-73
2021/07/23 10:46:44;;;;;;;9.90;5.20;;;;;;;18.22;68.70;101953.09;5031369;28;20181;-73
2021/07/23 10:49:10;;;;;;;8.00;4.60;;;;;;;18.04;68.00;101929.44;5017961;28;20993;-74
2021/07/23 10:51:48;;;;;;;6.10;4.33;;;;;;;18.36;67.89;101956.53;5031097;28;20818;-74
2021/07/23 10:54:15;;;;;;;6.70;5.13;;;;;;;18.36;68.96;101953.00;5028398;28;20612;-72
2021/07/23 10:57:00;;;;;;;9.47;6.00;;;;;;;18.32;69.37;101924.63;5032232;28;20459;-73
2021/07/23 10:59:40;;;;;;;5.50;5.00;;;;;;;18.61;69.30;101951.06;5032884;28;20806;-73
2021/07/23 11:02:07;;;;;;;4.50;4.10;;;;;;;18.84;69.83;101949.59;5030792;28;20521;-73
2021/07/23 11:04:34;;;;;;;5.20;4.70;;;;;;;18.81;69.35;101948.16;5019753;28;20447;-72
2021/07/23 11:07:04;;;;;;;4.53;4.13;;;;;;;18.93;67.72;101949.06;5029146;28;20809;-73
2021/07/23 11:09:31;;;;;;;6.77;5.33;;;;;;;18.60;67.65;101918.69;5030126;28;20431;-74
2021/07/23 11:12:25;;;;;;;5.73;5.13;;;;;;;18.57;68.49;101944.41;5030704;28;20442;-73
2021/07/23 11:14:55;;;;;;;7.67;4.50;;;;;;;18.61;68.65;101929.34;5022762;28;20482;-73
2021/07/23 11:17:21;;;;;;;5.73;5.13;;;;;;;18.76;67.93;101942.56;5027225;28;20482;-73
2021/07/23 11:19:52;;;;;;;4.70;4.00;;;;;;;19.04;67.60;101942.03;5031691;28;20793;-73
2021/07/23 11:22:27;;;;;;;6.40;4.40;;;;;;;19.15;66.83;101941.28;5032668;28;20435;-78